sensor_id;sensor_type;location;lat;lon;timestamp;pressure;altitude;pressure_sealevel;temperature;humidity
73101;BME280;61288;53.446;-2.266;2023-07-29T00:01:30;100596.22;;;15.16;100.00
73101;BME280;61288;53.446;-2.266;2023-07-29T00:03:56;100600.69;;;15.14;100.00
73101;BME280;61288;53.446;-2.266;2023-07-29T00:06:22;100596.28;;;15.14;100.00
73101;BME280;61288;53.446;-2.266;2023-07-29T00:08:47;100599.63;;;15.16;100.00
73101;BME280;61288;53.446;-2.266;2023-07-29T00:11:13;100590.25;;;15.14;100.00
73101;BME280;61288;53.446;-2.266;2023-07-29T00:13:38;100589.50;;;15.12;100.00
73101;BME280;61288;53.446;-2.266;2023-07-29T00:16:04;100579.88;;;15.12;100.00
73101;BME280;61288;53.446;-2.266;2023-07-29T00:18:30;100571.25;;;15.12;100.00
73101;BME280;61288;53.446;-2.266;2023-07-29T00:20:56;100571.31;;;15.10;100.00
73101;BME280;61288;53.446;-2.266;2023-07-29T00:23:23;100567.78;;;15.11;100.00
73101;BME280;61288;53.446;-2.266;2023-07-29T00:25:48;100554.91;;;15.08;100.00
73101;BME280;61288;53.446;-2.266;2023-07-29T00:28:14;100552.38;;;15.07;100.00
73101;BME280;61288;53.446;-2.266;2023-07-29T00:30:40;100554.25;;;15.05;100.00
73101;BME280;61288;53.446;-2.266;2023-07-29T00:33:05;100548.84;;;15.08;100.00
73101;BME280;61288;53.446;-2.266;2023-07-29T00:35:31;100547.09;;;15.08;100.00
73101;BME280;61288;53.446;-2.266;2023-07-29T00:37:56;100558.53;;;15.06;100.00
73101;BME280;61288;53.446;-2.266;2023-07-29T00:40:22;100558.53;;;15.06;100.00
73101;BME280;61288;53.446;-2.266;2023-07-29T00:42:49;100559.47;;;15.05;100.00
73101;BME280;61288;53.446;-2.266;2023-07-29T00:45:15;100555.31;;;15.02;100.00
73101;BME280;61288;53.446;-2.266;2023-07-29T00:47:42;100566.56;;;15.02;100.00
73101;BME280;61288;53.446;-2.266;2023-07-29T00:50:09;100559.47;;;15.05;100.00
73101;BME280;61288;53.446;-2.266;2023-07-29T00:52:36;100560.41;;;15.04;100.00
73101;BME280;61288;53.446;-2.266;2023-07-29T00:55:03;100557.91;;;15.02;100.00
73101;BME280;61288;53.446;-2.266;2023-07-29T00:57:29;100561.47;;;15.01;100.00
73101;BME280;61288;53.446;-2.266;2023-07-29T00:59:55;100551.84;;;15.01;100.00
73101;BME280;61288;53.446;-2.266;2023-07-29T01:02:21;100542.25;;;15.02;100.00
73101;BME280;61288;53.446;-2.266;2023-07-29T01:04:54;100541.41;;;15.01;100.00
73101;BME280;61288;53.446;-2.266;2023-07-29T01:10:07;100546.00;;;14.98;100.00
73101;BME280;61288;53.446;-2.266;2023-07-29T01:13:05;100523.25;;;15.00;100.00
73101;BME280;61288;53.446;-2.266;2023-07-29T01:15:49;100533.03;;;14.96;100.00
73101;BME280;61288;53.446;-2.266;2023-07-29T01:18:23;100526.13;;;14.95;100.00
73101;BME280;61288;53.446;-2.266;2023-07-29T01:20:53;100526.31;;;14.92;100.00
73101;BME280;61288;53.446;-2.266;2023-07-29T01:23:31;100511.81;;;14.88;100.00
73101;BME280;61288;53.446;-2.266;2023-07-29T01:25:57;100519.63;;;14.88;100.00
73101;BME280;61288;53.446;-2.266;2023-07-29T01:28:23;100505.09;;;14.84;100.00
73101;BME280;61288;53.446;-2.266;2023-07-29T01:30:51;100517.41;;;14.82;100.00
73101;BME280;61288;53.446;-2.266;2023-07-29T01:33:26;100520.94;;;14.81;100.00
73101;BME280;61288;53.446;-2.266;2023-07-29T01:36:02;100520.94;;;14.81;100.00
73101;BME280;61288;53.446;-2.266;2023-07-29T01:38:32;100515.06;;;14.77;100.00
73101;BME280;61288;53.446;-2.266;2023-07-29T01:41:03;100511.72;;;14.75;100.00
73101;BME280;61288;53.446;-2.266;2023-07-29T01:43:29;100505.75;;;14.73;100.00
73101;BME280;61288;53.446;-2.266;2023-07-29T01:45:55;100510.13;;;14.72;100.00
73101;BME280;61288;53.446;-2.266;2023-07-29T01:48:21;100515.34;;;14.72;100.00
73101;BME280;61288;53.446;-2.266;2023-07-29T01:50:47;100518.97;;;14.70;100.00
73101;BME280;61288;53.446;-2.266;2023-07-29T01:53:12;100526.84;;;14.68;100.00
73101;BME280;61288;53.446;-2.266;2023-07-29T01:55:38;100529.47;;;14.68;100.00
73101;BME280;61288;53.446;-2.266;2023-07-29T01:58:04;100527.72;;;14.69;100.00
73101;BME280;61288;53.446;-2.266;2023-07-29T02:00:30;100540.00;;;14.67;100.00
73101;BME280;61288;53.446;-2.266;2023-07-29T02:02:55;100537.47;;;14.65;100.00
73101;BME280;61288;53.446;-2.266;2023-07-29T02:05:21;100538.41;;;14.64;100.00
73101;BME280;61288;53.446;-2.266;2023-07-29T02:07:46;100531.53;;;14.63;100.00
73101;BME280;61288;53.446;-2.266;2023-07-29T02:10:12;100539.53;;;14.60;100.00
73101;BME280;61288;53.446;-2.266;2023-07-29T02:12:37;100537.94;;;14.57;100.00
73101;BME280;61288;53.446;-2.266;2023-07-29T02:15:03;100535.50;;;14.54;100.00
73101;BME280;61288;53.446;-2.266;2023-07-29T02:17:30;100522.66;;;14.51;100.00
73101;BME280;61288;53.446;-2.266;2023-07-29T02:19:56;100521.09;;;14.49;100.00
73101;BME280;61288;53.446;-2.266;2023-07-29T02:22:21;100514.22;;;14.48;100.00
73101;BME280;61288;53.446;-2.266;2023-07-29T02:24:47;100520.44;;;14.45;100.00
73101;BME280;61288;53.446;-2.266;2023-07-29T02:27:13;100518.75;;;14.44;100.00
73101;BME280;61288;53.446;-2.266;2023-07-29T02:29:38;100513.66;;;14.42;100.00
73101;BME280;61288;53.446;-2.266;2023-07-29T02:32:04;100505.91;;;14.41;100.00
73101;BME280;61288;53.446;-2.266;2023-07-29T02:34:30;100500.88;;;14.38;100.00
73101;BME280;61288;53.446;-2.266;2023-07-29T02:36:55;100500.97;;;14.36;100.00
73101;BME280;61288;53.446;-2.266;2023-07-29T02:39:21;100518.56;;;14.33;100.00
73101;BME280;61288;53.446;-2.266;2023-07-29T02:41:47;100521.34;;;14.29;100.00
73101;BME280;61288;53.446;-2.266;2023-07-29T02:44:12;100515.47;;;14.26;100.00
73101;BME280;61288;53.446;-2.266;2023-07-29T02:46:38;100512.88;;;14.26;100.00
73101;BME280;61288;53.446;-2.266;2023-07-29T02:49:03;100523.47;;;14.23;100.00
73101;BME280;61288;53.446;-2.266;2023-07-29T02:51:30;100518.44;;;14.20;100.00
73101;BME280;61288;53.446;-2.266;2023-07-29T02:53:55;100515.91;;;14.18;100.00
73101;BME280;61288;53.446;-2.266;2023-07-29T02:56:21;100518.81;;;14.13;100.00
73101;BME280;61288;53.446;-2.266;2023-07-29T02:58:46;100520.66;;;14.11;100.00
73101;BME280;61288;53.446;-2.266;2023-07-29T03:01:12;100527.75;;;14.09;100.00
73101;BME280;61288;53.446;-2.266;2023-07-29T03:03:38;100521.84;;;14.06;100.00
73101;BME280;61288;53.446;-2.266;2023-07-29T03:06:06;100516.72;;;14.04;100.00
73101;BME280;61288;53.446;-2.266;2023-07-29T03:08:32;100502.19;;;14.00;100.00
73101;BME280;61288;53.446;-2.266;2023-07-29T03:10:58;100498.84;;;13.98;100.00
73101;BME280;61288;53.446;-2.266;2023-07-29T03:13:24;100506.66;;;13.98;100.00
73101;BME280;61288;53.446;-2.266;2023-07-29T03:15:49;100501.56;;;13.96;100.00
73101;BME280;61288;53.446;-2.266;2023-07-29T03:18:15;100510.31;;;13.95;100.00
73101;BME280;61288;53.446;-2.266;2023-07-29T03:20:41;100499.03;;;13.95;100.00
73101;BME280;61288;53.446;-2.266;2023-07-29T03:23:07;100506.03;;;13.94;100.00
73101;BME280;61288;53.446;-2.266;2023-07-29T03:25:32;100500.72;;;13.96;100.00
73101;BME280;61288;53.446;-2.266;2023-07-29T03:27:58;100499.03;;;13.95;100.00
73101;BME280;61288;53.446;-2.266;2023-07-29T03:30:24;100508.53;;;13.96;100.00
73101;BME280;61288;53.446;-2.266;2023-07-29T03:32:49;100508.53;;;13.96;100.00
73101;BME280;61288;53.446;-2.266;2023-07-29T03:35:16;100522.47;;;13.95;100.00
73101;BME280;61288;53.446;-2.266;2023-07-29T03:37:41;100516.44;;;13.94;100.00
73101;BME280;61288;53.446;-2.266;2023-07-29T03:40:08;100520.78;;;13.94;100.00
73101;BME280;61288;53.446;-2.266;2023-07-29T03:42:35;100511.38;;;13.91;100.00
73101;BME280;61288;53.446;-2.266;2023-07-29T03:45:00;100508.88;;;13.90;100.00
73101;BME280;61288;53.446;-2.266;2023-07-29T03:47:26;100512.41;;;13.89;100.00
73101;BME280;61288;53.446;-2.266;2023-07-29T03:49:52;100511.56;;;13.88;100.00
73101;BME280;61288;53.446;-2.266;2023-07-29T03:52:18;100509.31;;;13.82;100.00
73101;BME280;61288;53.446;-2.266;2023-07-29T03:54:43;100503.59;;;13.75;100.00
73101;BME280;61288;53.446;-2.266;2023-07-29T03:57:09;100496.66;;;13.76;100.00
73101;BME280;61288;53.446;-2.266;2023-07-29T03:59:34;100502.97;;;13.71;100.00
73101;BME280;61288;53.446;-2.266;2023-07-29T04:02:00;100497.84;;;13.70;100.00
73101;BME280;61288;53.446;-2.266;2023-07-29T04:04:25;100502.22;;;13.69;100.00
73101;BME280;61288;53.446;-2.266;2023-07-29T04:06:51;100491.88;;;13.68;100.00
73101;BME280;61288;53.446;-2.266;2023-07-29T04:09:17;100488.34;;;13.69;100.00
73101;BME280;61288;53.446;-2.266;2023-07-29T04:11:43;100490.13;;;13.68;100.00
73101;BME280;61288;53.446;-2.266;2023-07-29T04:14:08;100490.13;;;13.68;100.00
73101;BME280;61288;53.446;-2.266;2023-07-29T04:16:34;100489.28;;;13.68;100.00
73101;BME280;61288;53.446;-2.266;2023-07-29T04:18:59;100487.69;;;13.65;100.00
73101;BME280;61288;53.446;-2.266;2023-07-29T04:21:24;100480.88;;;13.63;100.00
73101;BME280;61288;53.446;-2.266;2023-07-29T04:23:50;100487.88;;;13.62;100.00
73101;BME280;61288;53.446;-2.266;2023-07-29T04:26:15;100478.28;;;13.63;100.00
73101;BME280;61288;53.446;-2.266;2023-07-29T04:28:41;100479.22;;;13.62;100.00
73101;BME280;61288;53.446;-2.266;2023-07-29T04:31:08;100481.75;;;13.63;100.00
73101;BME280;61288;53.446;-2.266;2023-07-29T04:33:33;100481.75;;;13.63;100.00
73101;BME280;61288;53.446;-2.266;2023-07-29T04:35:59;100481.75;;;13.63;100.00
73101;BME280;61288;53.446;-2.266;2023-07-29T04:38:30;100492.16;;;13.63;100.00
73101;BME280;61288;53.446;-2.266;2023-07-29T04:40:56;100486.09;;;13.63;100.00
73101;BME280;61288;53.446;-2.266;2023-07-29T04:43:21;100486.94;;;13.63;100.00
73101;BME280;61288;53.446;-2.266;2023-07-29T04:45:48;100491.31;;;13.63;100.00
73101;BME280;61288;53.446;-2.266;2023-07-29T04:48:14;100494.00;;;13.61;100.00
73101;BME280;61288;53.446;-2.266;2023-07-29T04:50:39;100486.19;;;13.61;100.00
73101;BME280;61288;53.446;-2.266;2023-07-29T04:53:04;100479.22;;;13.62;100.00
73101;BME280;61288;53.446;-2.266;2023-07-29T04:55:30;100485.28;;;13.62;100.00
73101;BME280;61288;53.446;-2.266;2023-07-29T04:57:55;100488.69;;;13.63;100.00
73101;BME280;61288;53.446;-2.266;2023-07-29T05:00:21;100483.50;;;13.63;100.00
73101;BME280;61288;53.446;-2.266;2023-07-29T05:02:47;100487.69;;;13.65;100.00
73101;BME280;61288;53.446;-2.266;2023-07-29T05:05:12;100489.38;;;13.66;100.00
73101;BME280;61288;53.446;-2.266;2023-07-29T05:07:38;100489.38;;;13.66;100.00
73101;BME280;61288;53.446;-2.266;2023-07-29T05:10:03;100489.28;;;13.68;100.00
73101;BME280;61288;53.446;-2.266;2023-07-29T05:12:29;100486.78;;;13.66;100.00
73101;BME280;61288;53.446;-2.266;2023-07-29T05:14:54;100488.44;;;13.67;100.00
73101;BME280;61288;53.446;-2.266;2023-07-29T05:17:21;100486.59;;;13.69;100.00
73101;BME280;61288;53.446;-2.266;2023-07-29T05:19:46;100487.59;;;13.67;100.00
73101;BME280;61288;53.446;-2.266;2023-07-29T05:22:12;100482.38;;;13.67;100.00
73101;BME280;61288;53.446;-2.266;2023-07-29T05:24:37;100481.63;;;13.65;100.00
73101;BME280;61288;53.446;-2.266;2023-07-29T05:27:03;100490.13;;;13.68;100.00
73101;BME280;61288;53.446;-2.266;2023-07-29T05:29:28;100480.47;;;13.70;100.00
73101;BME280;61288;53.446;-2.266;2023-07-29T05:31:53;100489.03;;;13.72;100.00
73101;BME280;61288;53.446;-2.266;2023-07-29T05:34:19;100492.44;;;13.73;100.00
73101;BME280;61288;53.446;-2.266;2023-07-29T05:36:44;100491.44;;;13.76;100.00
73101;BME280;61288;53.446;-2.266;2023-07-29T05:39:10;100493.13;;;13.77;100.00
73101;BME280;61288;53.446;-2.266;2023-07-29T05:41:37;100491.25;;;13.79;100.00
73101;BME280;61288;53.446;-2.266;2023-07-29T05:44:02;100500.69;;;13.81;100.00
73101;BME280;61288;53.446;-2.266;2023-07-29T05:46:28;100500.41;;;13.86;100.00
73101;BME280;61288;53.446;-2.266;2023-07-29T05:48:53;100497.47;;;13.92;100.00
73101;BME280;61288;53.446;-2.266;2023-07-29T05:51:19;100489.34;;;13.97;100.00
73101;BME280;61288;53.446;-2.266;2023-07-29T05:53:45;100484.81;;;14.00;100.00
73101;BME280;61288;53.446;-2.266;2023-07-29T05:56:10;100478.50;;;14.05;100.00
73101;BME280;61288;53.446;-2.266;2023-07-29T05:58:36;100477.31;;;14.10;100.00
73101;BME280;61288;53.446;-2.266;2023-07-29T06:01:01;100477.75;;;14.17;100.00
73101;BME280;61288;53.446;-2.266;2023-07-29T06:03:27;100470.50;;;14.22;100.00
73101;BME280;61288;53.446;-2.266;2023-07-29T06:05:53;100472.84;;;14.27;100.00
73101;BME280;61288;53.446;-2.266;2023-07-29T06:08:19;100469.13;;;14.31;100.00
73101;BME280;61288;53.446;-2.266;2023-07-29T06:10:44;100471.53;;;14.34;100.00
73101;BME280;61288;53.446;-2.266;2023-07-29T06:13:10;100461.22;;;14.33;100.00
73101;BME280;61288;53.446;-2.266;2023-07-29T06:15:35;100455.72;;;14.37;100.00
73101;BME280;61288;53.446;-2.266;2023-07-29T06:18:01;100461.59;;;14.41;100.00
73101;BME280;61288;53.446;-2.266;2023-07-29T06:20:26;100468.41;;;14.43;100.00
73101;BME280;61288;53.446;-2.266;2023-07-29T06:22:52;100461.22;;;14.47;100.00
73101;BME280;61288;53.446;-2.266;2023-07-29T06:25:17;100460.19;;;14.50;100.00
73101;BME280;61288;53.446;-2.266;2023-07-29T06:27:43;100458.41;;;14.50;100.00
73101;BME280;61288;53.446;-2.266;2023-07-29T06:30:08;100471.25;;;14.53;100.00
73101;BME280;61288;53.446;-2.266;2023-07-29T06:32:34;100469.69;;;14.51;100.00
73101;BME280;61288;53.446;-2.266;2023-07-29T06:35:00;100478.53;;;14.48;100.00
73101;BME280;61288;53.446;-2.266;2023-07-29T06:37:25;100481.25;;;14.47;100.00
73101;BME280;61288;53.446;-2.266;2023-07-29T06:39:50;100497.72;;;14.47;100.00
73101;BME280;61288;53.446;-2.266;2023-07-29T06:42:16;100507.31;;;14.47;100.00
73101;BME280;61288;53.446;-2.266;2023-07-29T06:44:41;100519.69;;;14.43;100.00
73101;BME280;61288;53.446;-2.266;2023-07-29T06:47:07;100530.47;;;14.37;100.00
73101;BME280;61288;53.446;-2.266;2023-07-29T06:49:32;100532.41;;;14.33;100.00
73101;BME280;61288;53.446;-2.266;2023-07-29T06:51:58;100542.09;;;14.31;100.00
73101;BME280;61288;53.446;-2.266;2023-07-29T06:54:26;100546.50;;;14.30;100.00
73101;BME280;61288;53.446;-2.266;2023-07-29T06:56:52;100557.09;;;14.27;100.00
73101;BME280;61288;53.446;-2.266;2023-07-29T06:59:17;100559.69;;;14.27;100.00
73101;BME280;61288;53.446;-2.266;2023-07-29T07:01:43;100567.59;;;14.26;100.00
73101;BME280;61288;53.446;-2.266;2023-07-29T07:04:08;100568.72;;;14.22;100.00
73101;BME280;61288;53.446;-2.266;2023-07-29T07:06:33;100565.59;;;14.15;100.00
73101;BME280;61288;53.446;-2.266;2023-07-29T07:08:59;100565.56;;;14.00;100.00
73101;BME280;61288;53.446;-2.266;2023-07-29T07:11:24;100568.34;;;13.97;100.00
73101;BME280;61288;53.446;-2.266;2023-07-29T07:13:50;100574.66;;;13.93;100.00
73101;BME280;61288;53.446;-2.266;2023-07-29T07:16:15;100585.75;;;13.97;100.00
73101;BME280;61288;53.446;-2.266;2023-07-29T07:18:41;100582.22;;;13.98;100.00
73101;BME280;61288;53.446;-2.266;2023-07-29T07:21:06;100588.09;;;14.01;100.00
73101;BME280;61288;53.446;-2.266;2023-07-29T07:23:32;100588.00;;;14.03;100.00
73101;BME280;61288;53.446;-2.266;2023-07-29T07:25:57;100582.53;;;14.08;100.00
73101;BME280;61288;53.446;-2.266;2023-07-29T07:28:23;100586.75;;;14.10;100.00
73101;BME280;61288;53.446;-2.266;2023-07-29T07:30:48;100589.72;;;14.19;100.00
73101;BME280;61288;53.446;-2.266;2023-07-29T07:33:14;100595.88;;;14.18;100.00
73101;BME280;61288;53.446;-2.266;2023-07-29T07:35:40;100596.50;;;14.21;100.00
73101;BME280;61288;53.446;-2.266;2023-07-29T07:38:07;100605.94;;;14.24;100.00
73101;BME280;61288;53.446;-2.266;2023-07-29T07:40:38;100606.50;;;14.29;100.00
73101;BME280;61288;53.446;-2.266;2023-07-29T07:43:04;100610.44;;;14.36;100.00
73101;BME280;61288;53.446;-2.266;2023-07-29T07:45:32;100615.78;;;14.49;100.00
73101;BME280;61288;53.446;-2.266;2023-07-29T07:47:57;100615.16;;;14.60;100.00
73101;BME280;61288;53.446;-2.266;2023-07-29T07:50:23;100624.19;;;14.69;100.00
73101;BME280;61288;53.446;-2.266;2023-07-29T07:52:49;100623.59;;;14.80;100.00
73101;BME280;61288;53.446;-2.266;2023-07-29T07:55:15;100621.25;;;14.90;100.00
73101;BME280;61288;53.446;-2.266;2023-07-29T07:57:40;100629.56;;;14.96;100.00
73101;BME280;61288;53.446;-2.266;2023-07-29T08:00:09;100622.09;;;15.05;100.00
73101;BME280;61288;53.446;-2.266;2023-07-29T08:02:38;100623.78;;;15.06;100.00
73101;BME280;61288;53.446;-2.266;2023-07-29T08:05:06;100622.78;;;15.08;100.00
73101;BME280;61288;53.446;-2.266;2023-07-29T08:07:31;100613.00;;;15.12;100.00
73101;BME280;61288;53.446;-2.266;2023-07-29T08:09:57;100615.41;;;15.15;100.00
73101;BME280;61288;53.446;-2.266;2023-07-29T08:12:22;100603.66;;;15.22;100.00
73101;BME280;61288;53.446;-2.266;2023-07-29T08:14:48;100601.72;;;15.26;100.00
73101;BME280;61288;53.446;-2.266;2023-07-29T08:17:14;100584.25;;;15.26;100.00
73101;BME280;61288;53.446;-2.266;2023-07-29T08:19:45;100574.28;;;15.33;100.00
73101;BME280;61288;53.446;-2.266;2023-07-29T08:22:11;100563.25;;;15.42;100.00
73101;BME280;61288;53.446;-2.266;2023-07-29T08:24:36;100555.47;;;15.55;100.00
73101;BME280;61288;53.446;-2.266;2023-07-29T08:27:02;100542.56;;;15.67;100.00
73101;BME280;61288;53.446;-2.266;2023-07-29T08:29:27;100526.59;;;15.71;100.00
73101;BME280;61288;53.446;-2.266;2023-07-29T08:31:52;100525.03;;;15.82;100.00
73101;BME280;61288;53.446;-2.266;2023-07-29T08:34:18;100495.38;;;15.83;100.00
73101;BME280;61288;53.446;-2.266;2023-07-29T08:36:43;100480.16;;;15.90;100.00
73101;BME280;61288;53.446;-2.266;2023-07-29T08:39:10;100463.34;;;15.94;100.00
73101;BME280;61288;53.446;-2.266;2023-07-29T08:46:38;100419.00;;;16.31;100.00
73101;BME280;61288;53.446;-2.266;2023-07-29T08:49:05;100408.03;;;16.26;100.00
73101;BME280;61288;53.446;-2.266;2023-07-29T08:51:31;100392.06;;;16.17;100.00
73101;BME280;61288;53.446;-2.266;2023-07-29T08:53:58;100367.78;;;16.28;100.00
73101;BME280;61288;53.446;-2.266;2023-07-29T08:56:24;100382.66;;;16.52;100.00
73101;BME280;61288;53.446;-2.266;2023-07-29T08:58:51;100382.81;;;16.75;100.00
73101;BME280;61288;53.446;-2.266;2023-07-29T09:01:16;100385.63;;;16.85;100.00
73101;BME280;61288;53.446;-2.266;2023-07-29T09:03:42;100336.56;;;16.75;100.00
73101;BME280;61288;53.446;-2.266;2023-07-29T09:06:08;100347.38;;;16.71;100.00
73101;BME280;61288;53.446;-2.266;2023-07-29T09:08:34;100339.34;;;16.61;100.00
73101;BME280;61288;53.446;-2.266;2023-07-29T09:11:00;100364.94;;;16.44;100.00
73101;BME280;61288;53.446;-2.266;2023-07-29T09:13:26;100385.75;;;16.33;100.00
73101;BME280;61288;53.446;-2.266;2023-07-29T09:15:56;100383.34;;;16.30;100.00
73101;BME280;61288;53.446;-2.266;2023-07-29T09:18:27;100383.69;;;16.25;100.00
73101;BME280;61288;53.446;-2.266;2023-07-29T09:20:53;100396.31;;;16.31;100.00
73101;BME280;61288;53.446;-2.266;2023-07-29T09:23:19;100417.53;;;16.40;100.00
73101;BME280;61288;53.446;-2.266;2023-07-29T09:25:47;100436.34;;;16.58;100.00
73101;BME280;61288;53.446;-2.266;2023-07-29T09:28:14;100428.06;;;16.64;100.00
73101;BME280;61288;53.446;-2.266;2023-07-29T09:30:42;100442.19;;;16.62;100.00
73101;BME280;61288;53.446;-2.266;2023-07-29T09:33:10;100426.06;;;16.68;100.00
73101;BME280;61288;53.446;-2.266;2023-07-29T09:35:37;100434.19;;;16.76;100.00
73101;BME280;61288;53.446;-2.266;2023-07-29T09:38:04;100426.34;;;16.76;100.00
73101;BME280;61288;53.446;-2.266;2023-07-29T09:40:38;100420.59;;;16.71;100.00
73101;BME280;61288;53.446;-2.266;2023-07-29T09:43:06;100426.28;;;16.65;100.00
73101;BME280;61288;53.446;-2.266;2023-07-29T09:45:36;100413.31;;;16.50;100.00
73101;BME280;61288;53.446;-2.266;2023-07-29T09:48:04;100414.81;;;16.41;100.00
73101;BME280;61288;53.446;-2.266;2023-07-29T09:50:35;100423.41;;;16.30;100.00
73101;BME280;61288;53.446;-2.266;2023-07-29T09:53:03;100425.19;;;16.30;100.00
73101;BME280;61288;53.446;-2.266;2023-07-29T09:55:28;100395.25;;;16.47;100.00
73101;BME280;61288;53.446;-2.266;2023-07-29T09:58:00;100399.56;;;16.72;100.00
73101;BME280;61288;53.446;-2.266;2023-07-29T10:00:29;100384.94;;;16.94;100.00
73101;BME280;61288;53.446;-2.266;2023-07-29T10:02:55;100370.78;;;17.10;100.00
73101;BME280;61288;53.446;-2.266;2023-07-29T10:05:22;100346.09;;;17.37;100.00
73101;BME280;61288;53.446;-2.266;2023-07-29T10:07:49;100353.06;;;17.60;100.00
73101;BME280;61288;53.446;-2.266;2023-07-29T10:10:15;100336.84;;;17.67;100.00
73101;BME280;61288;53.446;-2.266;2023-07-29T10:12:44;100291.63;;;17.76;100.00
73101;BME280;61288;53.446;-2.266;2023-07-29T10:15:10;100289.13;;;17.74;100.00
73101;BME280;61288;53.446;-2.266;2023-07-29T10:17:37;100293.28;;;17.88;100.00
73101;BME280;61288;53.446;-2.266;2023-07-29T10:20:12;100264.09;;;17.93;100.00
73101;BME280;61288;53.446;-2.266;2023-07-29T10:22:42;100241.22;;;17.95;100.00
73101;BME280;61288;53.446;-2.266;2023-07-29T10:25:18;100265.66;;;18.07;100.00
73101;BME280;61288;53.446;-2.266;2023-07-29T10:27:53;100225.72;;;18.15;100.00
73101;BME280;61288;53.446;-2.266;2023-07-29T10:30:21;100223.72;;;18.07;100.00
73101;BME280;61288;53.446;-2.266;2023-07-29T10:32:48;100201.81;;;17.85;100.00
73101;BME280;61288;53.446;-2.266;2023-07-29T10:35:15;100210.28;;;17.66;100.00
73101;BME280;61288;53.446;-2.266;2023-07-29T10:37:42;100208.38;;;17.45;100.00
73101;BME280;61288;53.446;-2.266;2023-07-29T10:40:09;100220.75;;;17.32;100.00
73101;BME280;61288;53.446;-2.266;2023-07-29T10:42:36;100265.72;;;17.14;100.00
73101;BME280;61288;53.446;-2.266;2023-07-29T10:45:18;100254.66;;;17.33;100.00
73101;BME280;61288;53.446;-2.266;2023-07-29T10:47:44;100281.75;;;17.57;100.00
73101;BME280;61288;53.446;-2.266;2023-07-29T10:50:21;100274.81;;;17.56;100.00
73101;BME280;61288;53.446;-2.266;2023-07-29T10:52:51;100260.91;;;17.44;100.00
73101;BME280;61288;53.446;-2.266;2023-07-29T10:55:29;100238.03;;;17.57;100.00
73101;BME280;61288;53.446;-2.266;2023-07-29T10:58:11;100272.44;;;17.98;100.00
73101;BME280;61288;53.446;-2.266;2023-07-29T11:00:38;100263.16;;;18.50;100.00
73101;BME280;61288;53.446;-2.266;2023-07-29T11:03:07;100216.31;;;18.99;100.00
73101;BME280;61288;53.446;-2.266;2023-07-29T11:05:48;100177.16;;;19.48;100.00
73101;BME280;61288;53.446;-2.266;2023-07-29T11:08:23;100135.31;;;19.76;100.00
73101;BME280;61288;53.446;-2.266;2023-07-29T11:11:08;100113.63;;;19.94;100.00
73101;BME280;61288;53.446;-2.266;2023-07-29T11:13:38;100101.31;;;19.94;100.00
73101;BME280;61288;53.446;-2.266;2023-07-29T11:16:04;100101.66;;;19.70;100.00
73101;BME280;61288;53.446;-2.266;2023-07-29T11:18:32;100099.28;;;19.37;100.00
73101;BME280;61288;53.446;-2.266;2023-07-29T11:20:59;100108.19;;;19.15;100.00
73101;BME280;61288;53.446;-2.266;2023-07-29T11:23:34;100113.66;;;19.33;100.00
73101;BME280;61288;53.446;-2.266;2023-07-29T11:26:01;100108.59;;;19.61;100.00
73101;BME280;61288;53.446;-2.266;2023-07-29T11:28:28;100111.66;;;19.76;100.00
73101;BME280;61288;53.446;-2.266;2023-07-29T11:30:55;100113.22;;;20.08;100.00
73101;BME280;61288;53.446;-2.266;2023-07-29T11:33:24;100094.94;;;20.16;100.00
73101;BME280;61288;53.446;-2.266;2023-07-29T11:35:59;100097.41;;;20.47;100.00
73101;BME280;61288;53.446;-2.266;2023-07-29T11:38:25;100082.50;;;20.18;100.00
73101;BME280;61288;53.446;-2.266;2023-07-29T11:40:59;100090.25;;;20.00;100.00
73101;BME280;61288;53.446;-2.266;2023-07-29T11:43:25;100095.63;;;19.79;100.00
73101;BME280;61288;53.446;-2.266;2023-07-29T11:45:52;100096.00;;;19.65;100.00
73101;BME280;61288;53.446;-2.266;2023-07-29T11:48:18;100113.16;;;19.69;100.00
73101;BME280;61288;53.446;-2.266;2023-07-29T11:50:45;100113.16;;;19.78;100.00
73101;BME280;61288;53.446;-2.266;2023-07-29T11:53:10;100122.31;;;19.74;100.00
73101;BME280;61288;53.446;-2.266;2023-07-29T11:55:36;100118.38;;;19.49;100.00
73101;BME280;61288;53.446;-2.266;2023-07-29T11:58:02;100119.25;;;19.18;100.00
73101;BME280;61288;53.446;-2.266;2023-07-29T12:00:28;100118.72;;;18.94;100.00
73101;BME280;61288;53.446;-2.266;2023-07-29T12:02:54;100139.94;;;18.81;100.00
73101;BME280;61288;53.446;-2.266;2023-07-29T12:05:23;100154.88;;;18.90;100.00
73101;BME280;61288;53.446;-2.266;2023-07-29T12:07:53;100161.63;;;19.35;100.00
73101;BME280;61288;53.446;-2.266;2023-07-29T12:10:19;100143.56;;;19.61;100.00
73101;BME280;61288;53.446;-2.266;2023-07-29T12:12:48;100167.53;;;19.68;100.00
73101;BME280;61288;53.446;-2.266;2023-07-29T12:15:26;100134.16;;;19.49;100.00
73101;BME280;61288;53.446;-2.266;2023-07-29T12:17:58;100131.81;;;19.15;100.00
73101;BME280;61288;53.446;-2.266;2023-07-29T12:20:26;100133.50;;;18.95;100.00
73101;BME280;61288;53.446;-2.266;2023-07-29T12:22:56;100137.91;;;18.94;100.00
73101;BME280;61288;53.446;-2.266;2023-07-29T12:25:22;100144.06;;;19.04;100.00
73101;BME280;61288;53.446;-2.266;2023-07-29T12:27:49;100150.41;;;19.33;100.00
73101;BME280;61288;53.446;-2.266;2023-07-29T12:30:22;100165.19;;;19.75;100.00
73101;BME280;61288;53.446;-2.266;2023-07-29T12:32:48;100161.66;;;19.96;100.00
73101;BME280;61288;53.446;-2.266;2023-07-29T12:35:14;100130.22;;;20.04;100.00
73101;BME280;61288;53.446;-2.266;2023-07-29T12:37:39;100130.13;;;20.25;100.00